»·PEaware :: N448RA KCMA-KBFL

N448RA :: KCMA-KBFL

FLIGHT INFORMATION

Flight Status: Arrived
Operator: Privately registered:
United States
More flights under this callsign
Pilot: Scott M. (16181)
Aircraft: Unknown
(DA62)
More flights by this aircraft type
Origin: KCMA Camarillo
United States
Destination: KBFL Meadows
United States
More flights between these airports :: More routes between these airports
Route: +FIM
File this flight plan on PilotEdge
Remarks:
Altitude:
(Current/Filed)
7,500ft
Speed:
(Current/Filed)
140kts
Departed: 17-Oct-18 05:11 PM
Arrived: 17-Oct-18 05:49 PM
Distance/Time
Traveled:
73nm/0:38
Distance/Time
To Go:
Arrived

Flight Plot

Page will automatically refresh every two minutes.

Flight plan parsing failed; only flown route is shown


Map Options




Map Legend


Flown Route
Filed Route
Departure Airport
Arrival Airport
Navaid (VOR, NDB)
Fix

Horizontal Profiles

Position Reports

Time Latitude Longitude Heading Altitude Ground
Speed
17-Oct-18 16:50 34.210572 -119.095233 1 77ft 0kts
17-Oct-18 16:51 34.210572 -119.095233 1 77ft 0kts
17-Oct-18 16:52 34.210572 -119.095233 1 77ft 0kts
17-Oct-18 16:53 34.210572 -119.095233 1 77ft 0kts
17-Oct-18 16:54 34.210572 -119.095233 1 77ft 0kts
17-Oct-18 16:55 34.210572 -119.095233 1 77ft 0kts
17-Oct-18 16:56 34.210572 -119.095233 1 77ft 0kts
17-Oct-18 16:57 34.210572 -119.095233 1 77ft 0kts
17-Oct-18 16:58 34.210573 -119.095232 0 77ft 0kts
17-Oct-18 16:59 34.210573 -119.095233 358 77ft 0kts
17-Oct-18 17:00 34.210573 -119.095233 358 77ft 0kts
17-Oct-18 17:01 34.210573 -119.095233 358 77ft 0kts
17-Oct-18 17:02 34.211010 -119.092911 90 77ft 11kts
17-Oct-18 17:03 34.210966 -119.088732 91 77ft 14kts
17-Oct-18 17:04 34.211448 -119.084637 359 77ft 9kts
17-Oct-18 17:05 34.212817 -119.084623 359 77ft 0kts
17-Oct-18 17:06 34.212817 -119.084623 359 77ft 0kts
17-Oct-18 17:07 34.212817 -119.084623 359 77ft 0kts
17-Oct-18 17:08 34.212817 -119.084623 359 77ft 0kts
17-Oct-18 17:09 34.212817 -119.084623 359 77ft 0kts
17-Oct-18 17:10 34.212817 -119.084623 359 77ft 0kts
17-Oct-18 17:11 34.212817 -119.084623 359 77ft 0kts
17-Oct-18 17:12 34.212817 -119.084623 359 77ft 0kts
17-Oct-18 17:13 34.213699 -119.087251 270 78ft 49kts
17-Oct-18 17:14 34.212999 -119.113419 263 691ft 96kts
17-Oct-18 17:15 34.229360 -119.118616 53 1667ft 120kts
17-Oct-18 17:16 34.247872 -119.084343 55 2631ft 126kts
17-Oct-18 17:17 34.263049 -119.043539 67 3452ft 135kts
17-Oct-18 17:18 34.286238 -119.005144 44 4085ft 143kts
17-Oct-18 17:19 34.304285 -118.963016 55 4875ft 142kts
17-Oct-18 17:20 34.327109 -118.925760 46 5663ft 140kts
17-Oct-18 17:21 34.351451 -118.889269 45 6465ft 139kts
17-Oct-18 17:22 34.386179 -118.880289 359 7272ft 129kts
17-Oct-18 17:23 34.425266 -118.878390 359 7505ft 156kts
17-Oct-18 17:24 34.462954 -118.876679 359 7501ft 164kts
17-Oct-18 17:25 34.475918 -118.876102 359 7500ft 165kts
17-Oct-18 17:26 34.545902 -118.872988 359 7499ft 167kts
17-Oct-18 17:27 34.594006 -118.870848 359 7516ft 166kts
17-Oct-18 17:28 34.639932 -118.868796 359 7551ft 162kts
17-Oct-18 17:29 34.684155 -118.866906 359 7580ft 157kts
17-Oct-18 17:30 34.727680 -118.865003 0 7607ft 157kts
17-Oct-18 17:31 34.771522 -118.863049 0 7608ft 158kts
17-Oct-18 17:32 34.812925 -118.864495 345 7149ft 143kts
17-Oct-18 17:33 34.849629 -118.875695 345 6521ft 134kts
17-Oct-18 17:34 34.885646 -118.886826 345 5812ft 133kts
17-Oct-18 17:35 34.921263 -118.897858 344 5129ft 136kts
17-Oct-18 17:36 34.958877 -118.907817 355 4427ft 140kts
17-Oct-18 17:37 34.997898 -118.903828 10 3724ft 142kts
17-Oct-18 17:38 35.033593 -118.897063 4 3587ft 122kts
17-Oct-18 17:39 35.072117 -118.893229 2 3577ft 150kts
17-Oct-18 17:40 35.112054 -118.889791 4 3553ft 154kts
17-Oct-18 17:41 35.154857 -118.884842 5 3530ft 155kts
17-Oct-18 17:42 35.197732 -118.880913 3 3504ft 153kts
17-Oct-18 17:43 35.239809 -118.885114 348 3495ft 147kts
17-Oct-18 17:44 35.276700 -118.899218 343 3435ft 134kts
17-Oct-18 17:45 35.310380 -118.917885 330 3099ft 132kts
17-Oct-18 17:46 35.340669 -118.943625 316 2314ft 132kts
17-Oct-18 17:47 35.366692 -118.975062 314 1824ft 119kts
17-Oct-18 17:48 35.386860 -118.999874 315 1804ft 101kts
17-Oct-18 17:49 35.406601 -119.024088 316 1388ft 99kts
17-Oct-18 17:50 35.424626 -119.045096 315 735ft 85kts
17-Oct-18 17:51 35.438543 -119.061886 316 499ft 20kts
17-Oct-18 17:52 35.440320 -119.062618 35 499ft 4kts
17-Oct-18 17:53 35.438259 -119.059276 134 499ft 19kts
17-Oct-18 17:54 35.434348 -119.054584 135 499ft 16kts
17-Oct-18 17:55 35.430722 -119.050160 136 499ft 11kts
17-Oct-18 17:56 35.431563 -119.048516 311 499ft 0kts

Navigation Log

Ident Type
Flight plan parsing failed, navigation log unavailable